Skykomish, Washington
Current Conditions -  °F | °C
As of 9:53 AM on Thursday 30 Oct 2014 (Local Time) from KRNT Reporting Station
Light Rain Light Rain  
Wind Chill: 59°   Ceiling: 9000
Heat Index: 59°   Visibility: 6mi
Dew Point: 53°   Wind: 5mph
Humidity: 81%   Direction: NA
Pressure: 29.86"   Gusts: NA
Location:  47.71°N, 121.36°W
Report Text: KRNT 301653Z VRB04KT 6SM -RA OVC090 15/12 A2986 RMK AO2 RAB01 SLP117 P0001 T01500117
Loading
Personal Weather Stations






























Interactive Weather Map
Tropical Storm Tracking
New forecast layout! Learn more

10-Day Weather Forecast

Advertisements
Track Severe Weather on mobile